Terminal Aerodrome Forecast
Issued by NWS

Home | Current Version | Previous Version | Text Only | Print | Product List | Glossary On
Versions: 1 2 3 4 5 6 7 8 9 10 11 12 13 14 15 16
000
FTUS44 KOHX 231700
TAFCKV
TAF
KCKV 231724Z 2318/2418 03008KT P6SM FEW250
     FM240200 VRB04KT P6SM FEW250
     FM241400 18010KT P6SM SCT040 SCT250=

USA.gov is the U.S. government's official web portal to all federal, state and local government web resources and services.